Terminal Aerodrome Forecast
Issued by NWS Memphis, TN

Home | Current Version | Previous Version | Text Only | Print | Product List | Glossary On
Versions: 1 2 3 4 5 6 7 8 9 10 11 12 13 14 15
000
FTUS44 KMEG 191700
TAFJBR
TAF
KJBR 191720Z 1918/2018 07006KT P6SM SCT040
     FM200000 00000KT P6SM SKC
      TEMPO 2008/2012 4SM BR
     FM201400 18007KT P6SM SCT040=

USA.gov is the U.S. government's official web portal to all federal, state and local government web resources and services.